Kangding, China
Current Conditions -  °F | °C
As of 4:00 PM on Friday 21 Nov 2014 (Local Time) from ZUUU Reporting Station
Haze Haze  
Wind Chill: 55°   Ceiling: Unl
Heat Index: 55°   Visibility: 2.1mi
Dew Point: 48°   Wind: 2mph
Humidity: 77%   Direction: 260°W
Pressure: 30"   Gusts: NA
Location:  30.05°N, 101.97°E
Report Text: ZUUU 210800Z 26001MPS 3500 BR SCT050 13/09 Q1016 NOSIG
Loading
Personal Weather Stations






























Interactive Weather Map New forecast layout! Learn more

10-Day Weather Forecast

Advertisements
Track Severe Weather on mobile